Terminal Aerodrome Forecast
Issued by NWS

Home | Current Version | Previous Version | Text Only | Print | Product List | Glossary On
Versions: 1 2 3 4 5 6 7 8 9 10 11 12 13 14 15 16 17 18 19 20 21 22
722
FTUS43 KMQT 230520
TAFSAW
TAF
KSAW 230520Z 2306/2406 00000KT 1/4SM -DZ FG VV002
      TEMPO 2306/2308 1SM BR
     FM231600 00000KT 1SM BR OVC003
     FM231900 04003KT 2SM BR OVC005
     FM240300 36003KT 1SM BR OVC003=

USA.gov is the U.S. government's official web portal to all federal, state and local government web resources and services.